sensor_id;sensor_type;location;lat;lon;timestamp;pressure;altitude;pressure_sealevel;temperature;humidity
49915;BME280;35806;47.958;13.158;2024-01-11T00:00:02;95404.73;;;-9.00;52.75
49915;BME280;35806;47.958;13.158;2024-01-11T00:02:29;95405.81;;;-9.31;52.71
49915;BME280;35806;47.958;13.158;2024-01-11T00:04:57;95407.70;;;-8.68;51.14
49915;BME280;35806;47.958;13.158;2024-01-11T00:07:25;95407.54;;;-8.68;50.74
49915;BME280;35806;47.958;13.158;2024-01-11T00:09:52;95410.01;;;-9.05;51.00
49915;BME280;35806;47.958;13.158;2024-01-11T00:12:19;95409.48;;;-8.63;51.30
49915;BME280;35806;47.958;13.158;2024-01-11T00:14:46;95408.40;;;-8.80;52.45
49915;BME280;35806;47.958;13.158;2024-01-11T00:17:14;95409.22;;;-8.84;52.52
49915;BME280;35806;47.958;13.158;2024-01-11T00:19:42;95412.09;;;-8.99;52.18
49915;BME280;35806;47.958;13.158;2024-01-11T00:22:10;95419.37;;;-9.50;52.57
49915;BME280;35806;47.958;13.158;2024-01-11T00:24:37;95420.13;;;-9.23;52.10
49915;BME280;35806;47.958;13.158;2024-01-11T00:27:04;95420.39;;;-9.04;51.77
49915;BME280;35806;47.958;13.158;2024-01-11T00:29:32;95422.31;;;-9.30;52.16
49915;BME280;35806;47.958;13.158;2024-01-11T00:31:59;95419.19;;;-8.66;51.06
49915;BME280;35806;47.958;13.158;2024-01-11T00:34:26;95423.89;;;-9.31;51.68
49915;BME280;35806;47.958;13.158;2024-01-11T00:36:53;95426.37;;;-9.67;52.94
49915;BME280;35806;47.958;13.158;2024-01-11T00:39:21;95426.51;;;-9.13;52.81
49915;BME280;35806;47.958;13.158;2024-01-11T00:41:49;95423.68;;;-8.49;51.37
49915;BME280;35806;47.958;13.158;2024-01-11T00:44:17;95426.21;;;-9.01;51.92
49915;BME280;35806;47.958;13.158;2024-01-11T00:46:44;95421.55;;;-8.81;51.42
49915;BME280;35806;47.958;13.158;2024-01-11T00:49:12;95417.13;;;-8.93;51.02
49915;BME280;35806;47.958;13.158;2024-01-11T00:51:39;95419.25;;;-9.04;51.76
49915;BME280;35806;47.958;13.158;2024-01-11T00:54:07;95419.50;;;-9.21;53.40
49915;BME280;35806;47.958;13.158;2024-01-11T00:56:35;95421.67;;;-10.02;54.50
49915;BME280;35806;47.958;13.158;2024-01-11T00:59:03;95424.90;;;-8.87;53.86
49915;BME280;35806;47.958;13.158;2024-01-11T01:01:30;95427.59;;;-9.56;54.32
49915;BME280;35806;47.958;13.158;2024-01-11T01:03:58;95424.28;;;-8.67;55.03
49915;BME280;35806;47.958;13.158;2024-01-11T01:06:26;95428.19;;;-9.45;55.86
49915;BME280;35806;47.958;13.158;2024-01-11T01:08:55;95427.04;;;-9.18;57.18
49915;BME280;35806;47.958;13.158;2024-01-11T01:11:22;95425.59;;;-8.54;54.77
49915;BME280;35806;47.958;13.158;2024-01-11T01:13:50;95438.69;;;-10.24;56.46
49915;BME280;35806;47.958;13.158;2024-01-11T01:16:17;95443.90;;;-10.67;58.94
49915;BME280;35806;47.958;13.158;2024-01-11T01:18:45;95443.93;;;-9.64;58.20
49915;BME280;35806;47.958;13.158;2024-01-11T01:21:12;95446.24;;;-9.43;56.85
49915;BME280;35806;47.958;13.158;2024-01-11T01:23:40;95447.66;;;-9.36;57.42
49915;BME280;35806;47.958;13.158;2024-01-11T01:26:07;95447.08;;;-9.59;56.93
49915;BME280;35806;47.958;13.158;2024-01-11T01:28:39;95446.17;;;-9.66;55.36
49915;BME280;35806;47.958;13.158;2024-01-11T01:31:06;95445.72;;;-8.88;54.36
49915;BME280;35806;47.958;13.158;2024-01-11T01:33:33;95445.04;;;-9.33;54.81
49915;BME280;35806;47.958;13.158;2024-01-11T01:36:01;95439.23;;;-8.47;55.08
49915;BME280;35806;47.958;13.158;2024-01-11T01:38:28;95434.38;;;-8.87;55.77
49915;BME280;35806;47.958;13.158;2024-01-11T01:40:56;95430.55;;;-8.53;55.85
49915;BME280;35806;47.958;13.158;2024-01-11T01:43:23;95432.18;;;-9.14;58.77
49915;BME280;35806;47.958;13.158;2024-01-11T01:45:50;95426.83;;;-8.91;59.54
49915;BME280;35806;47.958;13.158;2024-01-11T01:48:19;95423.85;;;-8.47;59.93
49915;BME280;35806;47.958;13.158;2024-01-11T01:50:47;95422.04;;;-8.24;59.81
49915;BME280;35806;47.958;13.158;2024-01-11T01:53:15;95423.08;;;-8.62;62.15
49915;BME280;35806;47.958;13.158;2024-01-11T01:55:43;95420.60;;;-7.69;60.13
49915;BME280;35806;47.958;13.158;2024-01-11T01:58:10;95419.29;;;-7.69;59.51
49915;BME280;35806;47.958;13.158;2024-01-11T02:00:38;95426.13;;;-7.71;58.97
49915;BME280;35806;47.958;13.158;2024-01-11T02:03:06;95427.42;;;-7.91;58.51
49915;BME280;35806;47.958;13.158;2024-01-11T02:05:33;95425.89;;;-7.76;58.15
49915;BME280;35806;47.958;13.158;2024-01-11T02:08:01;95424.55;;;-7.73;57.74
49915;BME280;35806;47.958;13.158;2024-01-11T02:10:32;95420.33;;;-7.25;56.91
49915;BME280;35806;47.958;13.158;2024-01-11T02:13:00;95423.22;;;-6.98;56.05
49915;BME280;35806;47.958;13.158;2024-01-11T02:15:27;95426.17;;;-6.47;53.09
49915;BME280;35806;47.958;13.158;2024-01-11T02:17:55;95428.80;;;-6.80;52.69
49915;BME280;35806;47.958;13.158;2024-01-11T02:20:22;95433.59;;;-6.86;52.53
49915;BME280;35806;47.958;13.158;2024-01-11T02:22:53;95432.04;;;-6.80;51.78
49915;BME280;35806;47.958;13.158;2024-01-11T02:25:22;95428.14;;;-6.95;51.79
49915;BME280;35806;47.958;13.158;2024-01-11T02:27:50;95425.09;;;-7.73;52.72
49915;BME280;35806;47.958;13.158;2024-01-11T02:30:18;95423.27;;;-7.28;53.23
49915;BME280;35806;47.958;13.158;2024-01-11T02:32:48;95423.29;;;-7.42;52.93
49915;BME280;35806;47.958;13.158;2024-01-11T02:35:16;95421.77;;;-7.29;52.94
49915;BME280;35806;47.958;13.158;2024-01-11T02:37:44;95419.64;;;-7.73;52.58
49915;BME280;35806;47.958;13.158;2024-01-11T02:40:13;95412.64;;;-7.77;52.37
49915;BME280;35806;47.958;13.158;2024-01-11T02:42:41;95413.16;;;-7.45;51.53
49915;BME280;35806;47.958;13.158;2024-01-11T02:45:11;95409.37;;;-7.58;51.24
49915;BME280;35806;47.958;13.158;2024-01-11T02:47:38;95408.94;;;-8.02;51.51
49915;BME280;35806;47.958;13.158;2024-01-11T02:50:26;95401.09;;;-7.34;51.10
49915;BME280;35806;47.958;13.158;2024-01-11T02:52:53;95400.13;;;-8.29;51.60
49915;BME280;35806;47.958;13.158;2024-01-11T02:55:20;95397.35;;;-8.30;51.58
49915;BME280;35806;47.958;13.158;2024-01-11T02:57:47;95401.06;;;-8.45;51.42
49915;BME280;35806;47.958;13.158;2024-01-11T03:00:14;95402.49;;;-8.48;51.92
49915;BME280;35806;47.958;13.158;2024-01-11T03:02:42;95400.29;;;-8.86;51.62
49915;BME280;35806;47.958;13.158;2024-01-11T03:05:09;95397.30;;;-8.31;51.70
49915;BME280;35806;47.958;13.158;2024-01-11T03:07:36;95396.45;;;-8.09;50.66
49915;BME280;35806;47.958;13.158;2024-01-11T03:10:04;95391.44;;;-8.58;51.15
49915;BME280;35806;47.958;13.158;2024-01-11T03:12:32;95393.08;;;-8.37;50.36
49915;BME280;35806;47.958;13.158;2024-01-11T03:14:59;95397.71;;;-8.62;51.01
49915;BME280;35806;47.958;13.158;2024-01-11T03:17:26;95399.91;;;-8.26;51.00
49915;BME280;35806;47.958;13.158;2024-01-11T03:19:54;95400.80;;;-8.35;51.89
49915;BME280;35806;47.958;13.158;2024-01-11T03:22:22;95401.54;;;-8.70;52.63
49915;BME280;35806;47.958;13.158;2024-01-11T03:24:49;95403.14;;;-9.51;54.09
49915;BME280;35806;47.958;13.158;2024-01-11T03:27:16;95397.48;;;-8.62;53.44
49915;BME280;35806;47.958;13.158;2024-01-11T03:29:43;95390.29;;;-8.15;52.22
49915;BME280;35806;47.958;13.158;2024-01-11T03:32:11;95387.58;;;-8.06;52.69
49915;BME280;35806;47.958;13.158;2024-01-11T03:34:38;95387.37;;;-9.46;54.47
49915;BME280;35806;47.958;13.158;2024-01-11T03:37:05;95386.07;;;-8.62;53.98
49915;BME280;35806;47.958;13.158;2024-01-11T03:39:32;95379.58;;;-9.11;53.04
49915;BME280;35806;47.958;13.158;2024-01-11T03:42:00;95375.58;;;-8.53;52.27
49915;BME280;35806;47.958;13.158;2024-01-11T03:44:28;95374.31;;;-9.25;53.29
49915;BME280;35806;47.958;13.158;2024-01-11T03:46:55;95378.65;;;-8.33;52.60
49915;BME280;35806;47.958;13.158;2024-01-11T03:49:22;95376.21;;;-8.32;52.64
49915;BME280;35806;47.958;13.158;2024-01-11T03:51:49;95374.98;;;-7.95;52.23
49915;BME280;35806;47.958;13.158;2024-01-11T03:54:17;95374.26;;;-9.03;53.10
49915;BME280;35806;47.958;13.158;2024-01-11T03:56:44;95372.79;;;-8.50;52.09
49915;BME280;35806;47.958;13.158;2024-01-11T03:59:11;95365.07;;;-8.37;51.92
49915;BME280;35806;47.958;13.158;2024-01-11T04:01:40;95363.28;;;-8.63;52.15
49915;BME280;35806;47.958;13.158;2024-01-11T04:04:07;95366.34;;;-8.20;51.58
49915;BME280;35806;47.958;13.158;2024-01-11T04:06:35;95367.97;;;-9.16;52.90
49915;BME280;35806;47.958;13.158;2024-01-11T04:09:02;95373.01;;;-9.52;55.33
49915;BME280;35806;47.958;13.158;2024-01-11T04:11:30;95371.09;;;-10.03;57.20
49915;BME280;35806;47.958;13.158;2024-01-11T04:13:57;95371.33;;;-9.14;56.54
49915;BME280;35806;47.958;13.158;2024-01-11T04:16:25;95371.13;;;-8.72;55.72
49915;BME280;35806;47.958;13.158;2024-01-11T04:18:52;95371.76;;;-9.18;55.64
49915;BME280;35806;47.958;13.158;2024-01-11T04:21:21;95370.41;;;-9.09;55.15
49915;BME280;35806;47.958;13.158;2024-01-11T04:23:49;95369.94;;;-8.27;54.60
49915;BME280;35806;47.958;13.158;2024-01-11T04:26:17;95366.09;;;-8.37;54.51
49915;BME280;35806;47.958;13.158;2024-01-11T04:28:44;95373.46;;;-8.83;55.48
49915;BME280;35806;47.958;13.158;2024-01-11T04:31:12;95383.05;;;-8.70;56.01
49915;BME280;35806;47.958;13.158;2024-01-11T04:33:40;95384.97;;;-8.91;55.71
49915;BME280;35806;47.958;13.158;2024-01-11T04:36:07;95386.87;;;-9.66;59.52
49915;BME280;35806;47.958;13.158;2024-01-11T04:38:35;95378.87;;;-8.88;57.56
49915;BME280;35806;47.958;13.158;2024-01-11T04:41:07;95384.47;;;-9.51;57.43
49915;BME280;35806;47.958;13.158;2024-01-11T04:43:36;95390.46;;;-9.57;58.91
49915;BME280;35806;47.958;13.158;2024-01-11T04:46:12;95383.99;;;-9.01;58.17
49915;BME280;35806;47.958;13.158;2024-01-11T04:48:40;95382.30;;;-8.96;57.90
49915;BME280;35806;47.958;13.158;2024-01-11T04:51:08;95382.97;;;-8.86;57.11
49915;BME280;35806;47.958;13.158;2024-01-11T04:53:37;95381.73;;;-8.92;56.82
49915;BME280;35806;47.958;13.158;2024-01-11T04:56:05;95382.52;;;-9.14;57.04
49915;BME280;35806;47.958;13.158;2024-01-11T04:58:33;95381.78;;;-8.08;54.48
49915;BME280;35806;47.958;13.158;2024-01-11T05:01:01;95382.68;;;-8.72;55.38
49915;BME280;35806;47.958;13.158;2024-01-11T05:03:28;95382.48;;;-9.24;57.19
49915;BME280;35806;47.958;13.158;2024-01-11T05:05:55;95373.70;;;-8.57;55.14
49915;BME280;35806;47.958;13.158;2024-01-11T05:08:23;95371.73;;;-8.44;54.86
49915;BME280;35806;47.958;13.158;2024-01-11T05:10:50;95378.63;;;-9.66;57.36
49915;BME280;35806;47.958;13.158;2024-01-11T05:13:18;95383.68;;;-10.07;56.92
49915;BME280;35806;47.958;13.158;2024-01-11T05:15:46;95384.71;;;-9.85;57.94
49915;BME280;35806;47.958;13.158;2024-01-11T05:18:13;95378.57;;;-9.16;55.83
49915;BME280;35806;47.958;13.158;2024-01-11T05:20:40;95379.28;;;-8.96;55.31
49915;BME280;35806;47.958;13.158;2024-01-11T05:23:07;95387.32;;;-10.15;58.05
49915;BME280;35806;47.958;13.158;2024-01-11T05:25:35;95393.39;;;-9.68;56.51
49915;BME280;35806;47.958;13.158;2024-01-11T05:28:03;95391.93;;;-9.14;55.32
49915;BME280;35806;47.958;13.158;2024-01-11T05:30:31;95397.54;;;-8.93;53.76
49915;BME280;35806;47.958;13.158;2024-01-11T05:32:58;95401.50;;;-9.53;53.30
49915;BME280;35806;47.958;13.158;2024-01-11T05:35:25;95400.03;;;-8.78;52.55
49915;BME280;35806;47.958;13.158;2024-01-11T05:37:52;95404.51;;;-9.22;53.21
49915;BME280;35806;47.958;13.158;2024-01-11T05:40:19;95407.12;;;-8.29;51.81
49915;BME280;35806;47.958;13.158;2024-01-11T05:42:46;95407.93;;;-8.29;51.84
49915;BME280;35806;47.958;13.158;2024-01-11T05:45:14;95420.51;;;-9.29;54.22
49915;BME280;35806;47.958;13.158;2024-01-11T05:47:41;95420.11;;;-9.71;55.63
49915;BME280;35806;47.958;13.158;2024-01-11T05:50:09;95416.79;;;-9.10;54.86
49915;BME280;35806;47.958;13.158;2024-01-11T05:52:36;95410.01;;;-8.71;53.86
49915;BME280;35806;47.958;13.158;2024-01-11T05:55:04;95410.07;;;-8.49;53.99
49915;BME280;35806;47.958;13.158;2024-01-11T05:57:32;95414.21;;;-9.14;53.59
49915;BME280;35806;47.958;13.158;2024-01-11T05:59:59;95421.33;;;-9.15;54.56
49915;BME280;35806;47.958;13.158;2024-01-11T06:02:27;95415.96;;;-8.73;54.01
49915;BME280;35806;47.958;13.158;2024-01-11T06:04:54;95418.91;;;-8.77;54.18
49915;BME280;35806;47.958;13.158;2024-01-11T06:07:21;95424.26;;;-8.10;53.48
49915;BME280;35806;47.958;13.158;2024-01-11T06:09:49;95426.14;;;-8.62;54.16
49915;BME280;35806;47.958;13.158;2024-01-11T06:12:16;95423.85;;;-7.82;52.91
49915;BME280;35806;47.958;13.158;2024-01-11T06:14:43;95431.70;;;-8.95;53.80
49915;BME280;35806;47.958;13.158;2024-01-11T06:17:10;95436.17;;;-8.46;53.89
49915;BME280;35806;47.958;13.158;2024-01-11T06:19:38;95433.62;;;-8.28;52.60
49915;BME280;35806;47.958;13.158;2024-01-11T06:22:05;95441.82;;;-8.93;54.15
49915;BME280;35806;47.958;13.158;2024-01-11T06:24:32;95435.84;;;-8.37;53.61
49915;BME280;35806;47.958;13.158;2024-01-11T06:26:59;95434.30;;;-7.66;52.57
49915;BME280;35806;47.958;13.158;2024-01-11T06:29:27;95434.47;;;-7.71;52.40
49915;BME280;35806;47.958;13.158;2024-01-11T06:31:54;95434.20;;;-8.67;53.56
49915;BME280;35806;47.958;13.158;2024-01-11T06:34:22;95433.69;;;-7.81;52.46
49915;BME280;35806;47.958;13.158;2024-01-11T06:36:50;95444.86;;;-10.27;58.02
49915;BME280;35806;47.958;13.158;2024-01-11T06:39:17;95448.62;;;-9.37;56.92
49915;BME280;35806;47.958;13.158;2024-01-11T06:41:44;95458.35;;;-9.67;56.95
49915;BME280;35806;47.958;13.158;2024-01-11T06:44:17;95459.34;;;-9.39;57.34
49915;BME280;35806;47.958;13.158;2024-01-11T06:46:44;95462.31;;;-9.26;57.00
49915;BME280;35806;47.958;13.158;2024-01-11T06:49:11;95467.55;;;-8.90;56.38
49915;BME280;35806;47.958;13.158;2024-01-11T06:51:39;95469.11;;;-9.57;57.70
49915;BME280;35806;47.958;13.158;2024-01-11T06:54:07;95473.99;;;-9.19;56.36
49915;BME280;35806;47.958;13.158;2024-01-11T06:56:34;95476.28;;;-8.99;56.20
49915;BME280;35806;47.958;13.158;2024-01-11T06:59:01;95477.52;;;-8.15;55.37
49915;BME280;35806;47.958;13.158;2024-01-11T07:01:29;95468.80;;;-8.38;55.22
49915;BME280;35806;47.958;13.158;2024-01-11T07:03:56;95468.29;;;-8.28;54.89
49915;BME280;35806;47.958;13.158;2024-01-11T07:06:23;95466.04;;;-8.29;54.96
49915;BME280;35806;47.958;13.158;2024-01-11T07:08:50;95461.24;;;-8.25;55.20
49915;BME280;35806;47.958;13.158;2024-01-11T07:11:18;95459.79;;;-7.71;54.01
49915;BME280;35806;47.958;13.158;2024-01-11T07:13:45;95464.60;;;-8.63;55.09
49915;BME280;35806;47.958;13.158;2024-01-11T07:16:13;95460.30;;;-8.21;54.47
49915;BME280;35806;47.958;13.158;2024-01-11T07:18:40;95458.10;;;-8.35;54.89
49915;BME280;35806;47.958;13.158;2024-01-11T07:21:07;95456.11;;;-7.76;54.84
49915;BME280;35806;47.958;13.158;2024-01-11T07:23:35;95461.83;;;-7.99;54.90
49915;BME280;35806;47.958;13.158;2024-01-11T07:26:02;95462.03;;;-9.22;57.54
49915;BME280;35806;47.958;13.158;2024-01-11T07:28:28;95454.67;;;-7.85;55.52
49915;BME280;35806;47.958;13.158;2024-01-11T07:30:56;95450.82;;;-7.80;56.20
49915;BME280;35806;47.958;13.158;2024-01-11T07:33:23;95450.16;;;-7.60;54.98
49915;BME280;35806;47.958;13.158;2024-01-11T07:35:50;95445.04;;;-8.50;55.39
49915;BME280;35806;47.958;13.158;2024-01-11T07:38:17;95442.70;;;-7.99;55.53
49915;BME280;35806;47.958;13.158;2024-01-11T07:40:44;95452.02;;;-7.93;55.48
49915;BME280;35806;47.958;13.158;2024-01-11T07:43:11;95456.55;;;-7.70;55.87
49915;BME280;35806;47.958;13.158;2024-01-11T07:45:38;95458.04;;;-7.77;55.49
49915;BME280;35806;47.958;13.158;2024-01-11T07:48:06;95466.83;;;-7.60;55.98
49915;BME280;35806;47.958;13.158;2024-01-11T07:50:33;95462.74;;;-7.26;56.26
49915;BME280;35806;47.958;13.158;2024-01-11T07:53:00;95463.15;;;-7.80;57.72
49915;BME280;35806;47.958;13.158;2024-01-11T07:55:28;95464.93;;;-7.25;56.92
49915;BME280;35806;47.958;13.158;2024-01-11T07:57:55;95463.21;;;-7.22;56.83
49915;BME280;35806;47.958;13.158;2024-01-11T08:00:23;95463.34;;;-7.57;57.50
49915;BME280;35806;47.958;13.158;2024-01-11T08:02:50;95462.53;;;-7.20;57.24
49915;BME280;35806;47.958;13.158;2024-01-11T08:05:17;95471.02;;;-6.98;56.92
49915;BME280;35806;47.958;13.158;2024-01-11T08:07:45;95478.32;;;-6.44;55.35
49915;BME280;35806;47.958;13.158;2024-01-11T08:10:12;95484.74;;;-6.76;57.21
49915;BME280;35806;47.958;13.158;2024-01-11T08:12:40;95487.60;;;-6.69;57.08
49915;BME280;35806;47.958;13.158;2024-01-11T08:15:07;95492.84;;;-6.63;57.12
49915;BME280;35806;47.958;13.158;2024-01-11T08:17:34;95491.34;;;-6.69;57.36
49915;BME280;35806;47.958;13.158;2024-01-11T08:20:01;95495.03;;;-7.01;57.57
49915;BME280;35806;47.958;13.158;2024-01-11T08:22:30;95501.28;;;-6.57;57.84
49915;BME280;35806;47.958;13.158;2024-01-11T08:24:57;95498.78;;;-6.12;56.48
49915;BME280;35806;47.958;13.158;2024-01-11T08:27:25;95496.32;;;-6.25;56.43
49915;BME280;35806;47.958;13.158;2024-01-11T08:29:52;95494.46;;;-6.36;57.17
49915;BME280;35806;47.958;13.158;2024-01-11T08:32:19;95496.16;;;-6.52;57.82
49915;BME280;35806;47.958;13.158;2024-01-11T08:34:47;95493.13;;;-5.65;55.88
49915;BME280;35806;47.958;13.158;2024-01-11T08:37:14;95502.60;;;-5.77;56.45
49915;BME280;35806;47.958;13.158;2024-01-11T08:39:41;95501.02;;;-5.51;56.35
49915;BME280;35806;47.958;13.158;2024-01-11T08:42:09;95501.22;;;-5.52;56.18
49915;BME280;35806;47.958;13.158;2024-01-11T08:44:37;95503.39;;;-5.28;55.70
49915;BME280;35806;47.958;13.158;2024-01-11T08:47:28;95498.53;;;-4.48;54.63
49915;BME280;35806;47.958;13.158;2024-01-11T08:49:55;95503.04;;;-5.13;55.20
49915;BME280;35806;47.958;13.158;2024-01-11T08:52:23;95507.20;;;-6.29;57.16
49915;BME280;35806;47.958;13.158;2024-01-11T08:54:50;95511.05;;;-6.73;57.97
49915;BME280;35806;47.958;13.158;2024-01-11T08:57:17;95523.50;;;-5.50;56.14
49915;BME280;35806;47.958;13.158;2024-01-11T08:59:45;95523.27;;;-6.27;57.49
49915;BME280;35806;47.958;13.158;2024-01-11T09:02:12;95529.20;;;-5.40;56.13
49915;BME280;35806;47.958;13.158;2024-01-11T09:04:39;95533.79;;;-5.06;56.18
49915;BME280;35806;47.958;13.158;2024-01-11T09:07:06;95538.78;;;-5.23;55.77
49915;BME280;35806;47.958;13.158;2024-01-11T09:09:33;95541.28;;;-5.50;55.99
49915;BME280;35806;47.958;13.158;2024-01-11T09:12:01;95539.35;;;-4.64;55.33
49915;BME280;35806;47.958;13.158;2024-01-11T09:14:28;95536.00;;;-4.23;53.46
49915;BME280;35806;47.958;13.158;2024-01-11T09:16:56;95536.77;;;-4.14;51.20
49915;BME280;35806;47.958;13.158;2024-01-11T09:19:24;95548.55;;;-5.01;54.02
49915;BME280;35806;47.958;13.158;2024-01-11T09:21:51;95547.48;;;-4.39;53.32
49915;BME280;35806;47.958;13.158;2024-01-11T09:24:18;95546.31;;;-5.34;54.93
49915;BME280;35806;47.958;13.158;2024-01-11T09:26:45;95543.69;;;-5.43;55.40
49915;BME280;35806;47.958;13.158;2024-01-11T09:29:12;95539.58;;;-4.26;54.32
49915;BME280;35806;47.958;13.158;2024-01-11T09:31:40;95536.67;;;-4.04;51.88
49915;BME280;35806;47.958;13.158;2024-01-11T09:34:08;95538.94;;;-4.62;53.87
49915;BME280;35806;47.958;13.158;2024-01-11T09:36:35;95532.13;;;-3.93;52.78
49915;BME280;35806;47.958;13.158;2024-01-11T09:39:02;95533.11;;;-3.40;52.29
49915;BME280;35806;47.958;13.158;2024-01-11T09:41:31;95541.37;;;-3.54;51.92
49915;BME280;35806;47.958;13.158;2024-01-11T09:44:00;95549.53;;;-4.78;53.93
49915;BME280;35806;47.958;13.158;2024-01-11T09:46:29;95541.02;;;-3.98;53.04
49915;BME280;35806;47.958;13.158;2024-01-11T09:48:58;95535.45;;;-5.10;52.57
49915;BME280;35806;47.958;13.158;2024-01-11T09:51:26;95529.73;;;-3.77;52.13
49915;BME280;35806;47.958;13.158;2024-01-11T09:53:55;95517.88;;;-3.87;52.03
49915;BME280;35806;47.958;13.158;2024-01-11T09:56:23;95508.02;;;-3.51;51.77
49915;BME280;35806;47.958;13.158;2024-01-11T09:58:51;95509.43;;;-3.19;51.30
49915;BME280;35806;47.958;13.158;2024-01-11T10:01:19;95500.56;;;-2.90;51.64
49915;BME280;35806;47.958;13.158;2024-01-11T10:03:46;95505.78;;;-2.48;50.59
49915;BME280;35806;47.958;13.158;2024-01-11T10:06:14;95508.69;;;-2.73;51.21
49915;BME280;35806;47.958;13.158;2024-01-11T10:08:41;95501.11;;;-3.98;52.57
49915;BME280;35806;47.958;13.158;2024-01-11T10:11:09;95503.29;;;-2.23;47.47
49915;BME280;35806;47.958;13.158;2024-01-11T10:13:36;95499.89;;;-2.99;50.25
49915;BME280;35806;47.958;13.158;2024-01-11T10:16:08;95488.39;;;-3.15;50.43
49915;BME280;35806;47.958;13.158;2024-01-11T10:18:36;95487.81;;;-5.10;52.71
49915;BME280;35806;47.958;13.158;2024-01-11T10:21:04;95482.18;;;-3.73;51.86
49915;BME280;35806;47.958;13.158;2024-01-11T10:23:36;95483.50;;;-5.34;53.75
49915;BME280;35806;47.958;13.158;2024-01-11T10:26:04;95475.54;;;-4.01;53.52
49915;BME280;35806;47.958;13.158;2024-01-11T10:28:32;95463.27;;;-3.48;51.86
49915;BME280;35806;47.958;13.158;2024-01-11T10:30:59;95463.41;;;-2.29;50.08
49915;BME280;35806;47.958;13.158;2024-01-11T10:33:27;95465.63;;;-3.25;52.42
49915;BME280;35806;47.958;13.158;2024-01-11T10:35:54;95469.45;;;-2.53;50.62
49915;BME280;35806;47.958;13.158;2024-01-11T10:38:22;95470.52;;;-2.48;50.45
49915;BME280;35806;47.958;13.158;2024-01-11T10:40:54;95455.64;;;-2.69;52.16
49915;BME280;35806;47.958;13.158;2024-01-11T10:43:22;95461.19;;;-2.49;51.76
49915;BME280;35806;47.958;13.158;2024-01-11T10:45:52;95470.14;;;-2.62;51.75
49915;BME280;35806;47.958;13.158;2024-01-11T10:48:20;95461.35;;;-2.50;51.21
49915;BME280;35806;47.958;13.158;2024-01-11T10:50:55;95457.30;;;-2.13;49.70
49915;BME280;35806;47.958;13.158;2024-01-11T10:53:35;95463.22;;;-1.97;48.34
49915;BME280;35806;47.958;13.158;2024-01-11T10:56:05;95469.75;;;-2.21;48.04
49915;BME280;35806;47.958;13.158;2024-01-11T10:58:35;95460.01;;;-2.82;48.40
49915;BME280;35806;47.958;13.158;2024-01-11T11:01:03;95456.43;;;-3.22;49.88
49915;BME280;35806;47.958;13.158;2024-01-11T11:03:31;95453.26;;;-2.89;50.10
49915;BME280;35806;47.958;13.158;2024-01-11T11:06:01;95449.30;;;-2.63;49.35
49915;BME280;35806;47.958;13.158;2024-01-11T11:08:40;95442.42;;;-2.92;49.55
49915;BME280;35806;47.958;13.158;2024-01-11T11:11:08;95449.97;;;-3.40;51.65
49915;BME280;35806;47.958;13.158;2024-01-11T11:13:35;95449.47;;;-3.26;51.69
49915;BME280;35806;47.958;13.158;2024-01-11T11:16:03;95452.80;;;-3.49;51.18
49915;BME280;35806;47.958;13.158;2024-01-11T11:18:36;95457.75;;;-3.17;51.80
49915;BME280;35806;47.958;13.158;2024-01-11T11:21:09;95456.47;;;-3.44;51.80
49915;BME280;35806;47.958;13.158;2024-01-11T11:23:37;95447.45;;;-3.27;51.92
49915;BME280;35806;47.958;13.158;2024-01-11T11:26:06;95446.38;;;-2.23;50.10
49915;BME280;35806;47.958;13.158;2024-01-11T11:28:33;95450.87;;;-3.03;50.68
49915;BME280;35806;47.958;13.158;2024-01-11T11:31:02;95458.21;;;-2.27;49.63
49915;BME280;35806;47.958;13.158;2024-01-11T11:33:29;95449.02;;;-3.36;53.57
49915;BME280;35806;47.958;13.158;2024-01-11T11:35:58;95441.74;;;-2.43;51.39
49915;BME280;35806;47.958;13.158;2024-01-11T11:38:27;95437.21;;;-2.46;52.27
49915;BME280;35806;47.958;13.158;2024-01-11T11:40:56;95445.63;;;-2.39;52.39
49915;BME280;35806;47.958;13.158;2024-01-11T11:43:26;95450.75;;;-2.43;52.30
49915;BME280;35806;47.958;13.158;2024-01-11T11:45:55;95457.99;;;-2.38;52.71
49915;BME280;35806;47.958;13.158;2024-01-11T11:48:55;95459.15;;;-2.97;53.02
49915;BME280;35806;47.958;13.158;2024-01-11T11:51:22;95467.96;;;-2.95;53.48
49915;BME280;35806;47.958;13.158;2024-01-11T11:53:51;95471.77;;;-2.67;51.54
49915;BME280;35806;47.958;13.158;2024-01-11T11:56:19;95460.43;;;-2.86;51.95
49915;BME280;35806;47.958;13.158;2024-01-11T11:58:47;95453.59;;;-3.26;52.56
49915;BME280;35806;47.958;13.158;2024-01-11T12:01:16;95463.44;;;-2.77;52.55
49915;BME280;35806;47.958;13.158;2024-01-11T12:03:45;95465.51;;;-2.21;51.70
49915;BME280;35806;47.958;13.158;2024-01-11T12:06:14;95465.17;;;-2.11;51.37
49915;BME280;35806;47.958;13.158;2024-01-11T12:08:42;95469.35;;;-1.56;50.79
49915;BME280;35806;47.958;13.158;2024-01-11T12:11:13;95466.39;;;-2.27;51.88
49915;BME280;35806;47.958;13.158;2024-01-11T12:13:41;95452.42;;;-1.24;49.85
49915;BME280;35806;47.958;13.158;2024-01-11T12:16:08;95453.38;;;-1.50;48.76
49915;BME280;35806;47.958;13.158;2024-01-11T12:18:35;95443.77;;;-1.21;48.98
49915;BME280;35806;47.958;13.158;2024-01-11T12:21:03;95442.73;;;-2.88;49.59
49915;BME280;35806;47.958;13.158;2024-01-11T12:23:31;95446.43;;;-3.34;51.76
49915;BME280;35806;47.958;13.158;2024-01-11T12:26:01;95445.67;;;-3.82;52.31
49915;BME280;35806;47.958;13.158;2024-01-11T12:28:28;95453.74;;;-3.09;50.57
49915;BME280;35806;47.958;13.158;2024-01-11T12:30:55;95459.15;;;-3.83;52.38
49915;BME280;35806;47.958;13.158;2024-01-11T12:33:25;95467.38;;;-4.06;53.40
49915;BME280;35806;47.958;13.158;2024-01-11T12:35:53;95486.22;;;-4.08;54.36
49915;BME280;35806;47.958;13.158;2024-01-11T12:38:20;95485.53;;;-3.21;52.89
49915;BME280;35806;47.958;13.158;2024-01-11T12:40:48;95480.15;;;-3.08;51.66
49915;BME280;35806;47.958;13.158;2024-01-11T12:43:15;95479.94;;;-2.70;51.77
49915;BME280;35806;47.958;13.158;2024-01-11T12:45:43;95470.95;;;-3.77;52.66
49915;BME280;35806;47.958;13.158;2024-01-11T12:48:10;95460.76;;;-3.51;52.08
49915;BME280;35806;47.958;13.158;2024-01-11T12:50:38;95457.57;;;-3.02;52.51
49915;BME280;35806;47.958;13.158;2024-01-11T12:53:07;95455.24;;;-4.04;54.67